2nd June 2019 | Mackay, QLD, Australia

Mackay Marina Fun Run (2019)

O'hara Super Air Mart / Daikin 5km Corporate Teams

Pos Team Name # Members Team Time Category (Pos)
1 One Stop Medical 1 10 00:52:52 14 Corporate Challenge Team (1)
2 Holy Spirit College 10 00:52:52 15 Corporate Challenge Team (2)
3 TMR Social Club A 8 01:01:51 68 Corporate Challenge Team (3)
4 Crossfit 4740 team1 9 01:02:51 77 Corporate Challenge Team (4)
5 SSHS Pacemakers 9 01:04:16 91 Corporate Challenge Team (5)
6 WARRIOR 10 01:05:41 86 Corporate Challenge Team (6)
7 North High 6 10 01:09:05 143 Corporate Challenge Team (7)
8 Red E Team #1 10 01:09:09 147 Corporate Challenge Team (8)
9 North High 3 10 01:09:36 146 Corporate Challenge Team (9)
10 North High 1 10 01:10:56 266 Corporate Challenge Team (10)
11 Muscle Garden 1 10 01:13:45 388 Corporate Challenge Team (11)
12 TMR Social Club B 10 01:14:20 244 Corporate Challenge Team (12)
13 North High 2 9 01:14:23 285 Corporate Challenge Team (13)
14 J. Hamilton & Associates 9 01:15:12 302 Corporate Challenge Team (14)
15 Sydney St Medical 1 10 01:15:18 312 Corporate Challenge Team (15)
16 MNBSHS TEAM 1 10 01:15:18 368 Corporate Challenge Team (16)
17 Hastings Deering Team 1 9 01:15:36 309 Corporate Challenge Team (17)
18 One AECOM One 8 01:15:44 344 Corporate Challenge Team (18)
19 CITY FITNESS BLUE 10 01:16:04 418 Corporate Challenge Team (19)
20 McKays 10 01:16:10 336 Corporate Challenge Team (20)
21 Vassallo Constructions 2 10 01:17:11 373 Corporate Challenge Team (21)
22 My Chiropractor 10 01:17:11 628 Corporate Challenge Team (22)
23 MRC team 2 10 01:17:18 440 Corporate Challenge Team (23)
24 North High 4 10 01:17:26 390 Corporate Challenge Team (24)
25 Muscle Garden 2 10 01:17:27 371 Corporate Challenge Team (25)
26 Muscle Garden 12 10 01:17:27 358 Corporate Challenge Team (26)
27 Crossfit Mackay 1 10 01:17:42 402 Corporate Challenge Team (27)
28 The 4100XPC's 10 01:17:55 389 Corporate Challenge Team (28)
29 TEAM BMA 2 8 01:18:15 421 Corporate Challenge Team (29)
30 Revolution Electrical 2 9 01:18:30 399 Corporate Challenge Team (30)
31 Muscle Garden 15 10 01:18:32 404 Corporate Challenge Team (31)
32 CITY FITNESS GREY 10 01:18:33 561 Corporate Challenge Team (32)
33 Muscle Garden 6 10 01:18:44 405 Corporate Challenge Team (33)
34 MACS 2 10 01:18:48 422 Corporate Challenge Team (34)
35 Aurecon 10 01:19:12 515 Corporate Challenge Team (35)
36 RPTM 2 10 01:19:18 562 Corporate Challenge Team (36)
37 MRC - Design team 10 01:19:30 466 Corporate Challenge Team (37)
38 SANJEEV BANDI PTY LTD 6 01:19:32 492 Corporate Challenge Team (38)
39 Muscle Garden 14 10 01:19:34 447 Corporate Challenge Team (39)
40 Crossfit 4740 Team 2 8 01:20:12 578 Corporate Challenge Team (40)
41 Crossfit Mackay 2 10 01:20:17 536 Corporate Challenge Team (41)
42 QPS 1 8 01:20:58 515 Corporate Challenge Team (42)
43 Bennett Partners 1 10 01:21:09 521 Corporate Challenge Team (43)
44 Warrior2 9 01:21:16 526 Corporate Challenge Team (44)
45 St Joseph's School 2 10 01:21:30 542 Corporate Challenge Team (45)
46 MACS 3 10 01:21:44 548 Corporate Challenge Team (46)
47 Penske Power Systems 1 10 01:21:51 589 Corporate Challenge Team (47)
48 Whitson Dawson 10 01:22:24 576 Corporate Challenge Team (48)
49 TEAM BMA 1 10 01:22:37 630 Corporate Challenge Team (49)
50 Muscle Garden 3 10 01:22:50 621 Corporate Challenge Team (50)
51 Starcut flowers 9 01:23:01 639 Corporate Challenge Team (51)
52 MRC team 3 10 01:23:07 615 Corporate Challenge Team (52)
53 Integral Engineering 8 01:23:13 636 Corporate Challenge Team (53)
54 Scrambled Legs 9 01:24:01 665 Corporate Challenge Team (54)
55 Wix Painting 10 01:24:09 661 Corporate Challenge Team (55)
56 Muscle Garden 4 10 01:24:20 679 Corporate Challenge Team (56)
57 HSC STAFF 10 01:24:28 689 Corporate Challenge Team (57)
58 Muscle Garden 9 10 01:24:28 665 Corporate Challenge Team (58)
59 SSHS Joggernauts 8 01:24:32 775 Corporate Challenge Team (59)
60 Metamorph personal training 8 01:24:55 706 Corporate Challenge Team (60)
61 Muscle Garden 13 10 01:24:58 696 Corporate Challenge Team (61)
62 Muscle Garden 8 10 01:25:11 716 Corporate Challenge Team (62)
63 Muscle Garden 10 10 01:25:21 724 Corporate Challenge Team (63)
64 Coles Parkside 9 01:26:02 741 Corporate Challenge Team (64)
65 Forsyths 2 9 01:26:21 769 Corporate Challenge Team (65)
66 Vassallo Constructions 1 10 01:26:46 778 Corporate Challenge Team (66)
67 Aurizon 10 01:26:47 781 Corporate Challenge Team (67)
68 DGL Runners 10 01:26:50 787 Corporate Challenge Team (68)
69 MACS 1 10 01:27:39 822 Corporate Challenge Team (69)
70 North High 5 9 01:28:02 848 Corporate Challenge Team (70)
71 MRC team 1 10 01:28:43 867 Corporate Challenge Team (71)
72 SSHS Great Strides 10 01:29:09 884 Corporate Challenge Team (72)
73 Coles Sydney Street 9 01:29:44 914 Corporate Challenge Team (73)
74 St Joseph's Catholic School 3 9 01:30:05 930 Corporate Challenge Team (74)
75 Leketek Electricians 10 01:30:15 941 Corporate Challenge Team (75)
76 Mackay Isuzu UTE 10 01:30:20 938 Corporate Challenge Team (76)
77 Forsyths 1 10 01:30:58 977 Corporate Challenge Team (77)
78 Muscle Garden 5 10 01:31:19 983 Corporate Challenge Team (78)
79 Red E Team #3 10 01:31:25 1004 Corporate Challenge Team (79)
80 Kelman 10 01:31:29 983 Corporate Challenge Team (80)
81 SSHS Full Throttle 10 01:32:25 1033 Corporate Challenge Team (81)
82 Macrossan & Amiet Solicitors Team 1 10 01:32:31 1051 Corporate Challenge Team (82)
83 QPS 2 9 01:32:36 1039 Corporate Challenge Team (83)
84 Health On Central 10 01:32:36 1042 Corporate Challenge Team (84)
85 Key Solutions Group 10 01:33:24 1091 Corporate Challenge Team (85)
86 TMR Social Club C 7 01:33:43 1099 Corporate Challenge Team (86)
87 Penske Power Systems 2 10 01:34:00 1107 Corporate Challenge Team (87)
88 CITY FITNESS BLACK 10 01:34:03 1112 Corporate Challenge Team (88)
89 Coles Mount Pleasent 8 01:35:04 1155 Corporate Challenge Team (89)
90 Revolution Electrical 9 01:36:13 1197 Corporate Challenge Team (90)
91 Porters Mitre 10 10 01:36:20 1203 Corporate Challenge Team (91)
92 Wisely Group 10 01:36:35 1219 Corporate Challenge Team (92)
93 Crossfit4740 Team 3 7 01:36:51 1236 Corporate Challenge Team (93)
94 5Km Bandits 8 01:37:12 1242 Corporate Challenge Team (94)
95 Muscle Garden 7 10 01:37:26 1277 Corporate Challenge Team (95)
96 DGL Joggers 10 01:37:28 1258 Corporate Challenge Team (96)
97 Red E Team #4 10 01:37:32 1267 Corporate Challenge Team (97)
98 Team Toll 10 01:37:39 1265 Corporate Challenge Team (98)
99 Hastings Deering 2 10 01:37:39 1217 Corporate Challenge Team (99)
100 G&S Engineering Services - Team 2 10 01:38:02 1291 Corporate Challenge Team (100)
101 CQ Field Mining Services 10 01:38:07 1284 Corporate Challenge Team (101)
102 CQUniversity Staff 7 01:38:09 1291 Corporate Challenge Team (102)
103 Worley 1 9 01:39:14 1345 Corporate Challenge Team (103)
104 BatCat BootCamp 10 01:39:51 1312 Corporate Challenge Team (104)
105 NQ Water 9 01:40:42 1410 Corporate Challenge Team (105)
106 NQ Water 2 8 01:41:03 1418 Corporate Challenge Team (106)
107 Strategic Media Partners 10 01:41:15 1414 Corporate Challenge Team (107)
108 HR Huff n Puff's 9 01:41:57 1458 Corporate Challenge Team (108)
109 The 930E's 10 01:42:23 1474 Corporate Challenge Team (109)
110 CITY FITNESS LIGHT BLUE 10 01:42:35 1486 Corporate Challenge Team (110)
111 Cummins Red 8 01:42:40 1520 Corporate Challenge Team (111)
112 PrimeFit Team 1 10 01:43:08 1536 Corporate Challenge Team (112)
113 RPTM 1 10 01:43:15 1512 Corporate Challenge Team (113)
114 Caneland Medical 2 10 01:43:28 1551 Corporate Challenge Team (114)
115 G&S Engineering Services - Team 3 10 01:43:55 1555 Corporate Challenge Team (115)
116 Red E Team #2 10 01:45:17 1601 Corporate Challenge Team (116)
117 Number Crunchers 8 01:46:06 1652 Corporate Challenge Team (117)
118 headspace 2.0 9 01:46:49 1697 Corporate Challenge Team (118)
119 G&S Engineering Services - Team 5 8 01:47:03 1689 Corporate Challenge Team (119)
120 Bennett Partners 2 10 01:47:49 1581 Corporate Challenge Team (120)
121 MACS 4 10 01:48:02 1715 Corporate Challenge Team (121)
122 Muscle Garden 17 10 01:49:13 1729 Corporate Challenge Team (122)
123 Caneland Medical 1 10 01:50:04 1754 Corporate Challenge Team (123)
124 Magpies Sporting Club 8 01:50:40 1816 Corporate Challenge Team (124)
125 CQUniversity Mackay 8 01:51:27 1867 Corporate Challenge Team (125)
126 headspace 10 01:51:37 1730 Corporate Challenge Team (126)
127 Beaconsfield 10 01:51:43 1850 Corporate Challenge Team (127)
128 Ooralea Dental Care Mackay 9 01:52:59 1965 Corporate Challenge Team (128)
129 One Stop Medical 3 10 01:54:39 1945 Corporate Challenge Team (129)
130 G&S Engineering Services - Team 1 10 01:54:50 2030 Corporate Challenge Team (130)
131 Macrossan & Amiet Solicitors Team 2 10 01:56:06 1870 Corporate Challenge Team (131)
132 TMR Social Club D 10 01:56:41 1959 Corporate Challenge Team (132)
133 HELLOWORLD 9 01:56:51 2112 Corporate Challenge Team (133)
134 Plaza Dental 10 01:58:08 2141 Corporate Challenge Team (134)
135 Sarina Dental Care 9 01:58:47 2149 Corporate Challenge Team (135)
136 Pioneer Podiatry 10 01:59:16 2059 Corporate Challenge Team (136)
137 Beaconsfield 1 6 01:59:25 1998 Corporate Challenge Team (137)
138 FKG GROUP 10 02:01:02 2151 Corporate Challenge Team (138)
139 Vassallo Constructions 3 5 02:01:45 2068 Corporate Challenge Team (139)
140 Coles Cannonvale 10 02:02:25 2125 Corporate Challenge Team (140)
141 ARCH DENTAL 10 02:04:30 2146 Corporate Challenge Team (141)
142 St Joseph’s Catholic School 1 10 02:08:09 2406 Corporate Challenge Team (142)
143 MOE Superheroes 10 02:08:53 2457 Corporate Challenge Team (143)
144 CITY FITNESS WHITE 10 02:09:33 2401 Corporate Challenge Team (144)
145 Flor-Hanly 8 02:09:44 2494 Corporate Challenge Team (145)
146 Reef Catchments 9 02:11:00 2544 Corporate Challenge Team (146)
147 MAP Pharmacy 9 02:13:25 2425 Corporate Challenge Team (147)
148 Cummins Blue 10 02:13:45 2613 Corporate Challenge Team (148)
149 The L1850's 5 02:14:13 2457 Corporate Challenge Team (149)
150 Consolidate Plastics and Epoxy 7 02:14:32 2449 Corporate Challenge Team (150)
151 The D475's 10 02:16:59 2676 Corporate Challenge Team (151)
152 Magpies Sporting Club 2 4 02:22:35 2869 Corporate Challenge Team (152)
153 Maurice Blackburn Lawyers 10 02:23:22 2884 Corporate Challenge Team (153)
154 One Stop Medical 2 8 02:25:21 2953 Corporate Challenge Team (154)
155 J. Hamilton & Associates 2 8 02:32:34 3188 Corporate Challenge Team (155)
156 G&S Engineering Services - Team 4 9 02:38:11 3375 Corporate Challenge Team (156)
157 Mader Queensland 9 02:41:36 3460 Corporate Challenge Team (157)
158 Coles Canelands 6 02:56:06 3918 Corporate Challenge Team (158)
159 Team C-Res 7 03:09:14 4035 Corporate Challenge Team (159)
- TEAM SMITH 4 Corporate Challenge Team
- Test Team 2 Corporate Challenge Team
- Muscle Garden 16 11 Corporate Challenge Team
- Muscle Garden 11 11 Corporate Challenge Team
- Brady Bunch 4 Corporate Challenge Team
- JOHNSON 3 Corporate Challenge Team
- JSIS ENGINEERING 4 Corporate Challenge Team
- Mastermyne Group 3 Corporate Challenge Team
- Billiton Mitsui Coal 24 Corporate Challenge Team
- Team BMC 1 Corporate Challenge Team
- VS Team 3 Corporate Challenge Team